createdAt,value
2018-05-12T00:01:02.811Z,75.93
2018-05-12T00:03:32.613Z,76.30
2018-05-12T00:06:03.383Z,76.66
2018-05-12T00:08:33.182Z,76.48
2018-05-12T00:11:03.175Z,74.83
2018-05-12T00:13:32.007Z,75.33
2018-05-12T00:16:00.962Z,75.33
2018-05-12T00:18:29.544Z,75.53
2018-05-12T00:20:58.157Z,76.32
2018-05-12T00:23:26.796Z,77.47
2018-05-12T00:25:55.395Z,77.78
2018-05-12T00:28:27.991Z,77.65
2018-05-12T00:30:56.663Z,78.35
2018-05-12T00:33:25.866Z,78.78
2018-05-12T00:35:56.483Z,78.78
2018-05-12T00:38:25.119Z,78.82
2018-05-12T00:40:53.900Z,78.59
2018-05-12T00:43:23.708Z,79.00
2018-05-12T00:45:52.316Z,79.60
2018-05-12T00:48:21.904Z,79.57
2018-05-12T00:50:50.504Z,79.86
2018-05-12T00:53:19.146Z,77.12
2018-05-12T00:55:47.884Z,78.48
2018-05-12T00:58:16.546Z,78.83
2018-05-12T01:00:45.082Z,78.72
2018-05-12T01:03:13.717Z,78.61
2018-05-12T01:05:42.315Z,77.98
2018-05-12T01:08:10.947Z,76.14
2018-05-12T01:10:39.542Z,77.61
2018-05-12T01:13:08.176Z,79.31
2018-05-12T01:15:36.974Z,80.19
2018-05-12T01:18:05.682Z,78.97
2018-05-12T01:20:34.281Z,80.27
2018-05-12T01:23:03.125Z,80.69
2018-05-12T01:25:31.733Z,81.09
2018-05-12T01:28:00.722Z,81.81
2018-05-12T01:30:29.318Z,82.27
2018-05-12T01:32:57.951Z,82.41
2018-05-12T01:35:26.557Z,82.39
2018-05-12T01:37:55.197Z,82.71
2018-05-12T01:40:23.800Z,82.56
2018-05-12T01:42:52.441Z,82.85
2018-05-12T01:45:21.043Z,81.45
2018-05-12T01:47:49.653Z,82.06
2018-05-12T01:50:18.296Z,82.14
2018-05-12T01:52:49.153Z,80.92
2018-05-12T01:55:17.870Z,81.77
2018-05-12T01:57:46.473Z,81.88
2018-05-12T02:00:17.925Z,81.68
2018-05-12T02:02:46.523Z,81.54
2018-05-12T02:05:15.199Z,81.45
2018-05-12T02:07:43.798Z,81.41
2018-05-12T02:10:12.435Z,81.69
2018-05-12T02:12:41.032Z,82.26
2018-05-12T02:15:09.663Z,83.08
2018-05-12T02:17:38.263Z,83.17
2018-05-12T02:20:06.902Z,83.40
2018-05-12T02:22:35.503Z,83.32
2018-05-12T02:25:04.142Z,82.99
2018-05-12T02:27:32.758Z,82.95
2018-05-12T02:30:01.403Z,83.03
2018-05-12T02:32:30.005Z,83.00
2018-05-12T02:34:58.646Z,83.35
2018-05-12T02:37:27.267Z,83.86
2018-05-12T02:39:55.889Z,83.72
2018-05-12T02:42:24.502Z,82.22
2018-05-12T02:44:53.162Z,83.04
2018-05-12T02:47:34.696Z,83.48
2018-05-12T02:50:03.654Z,83.62
2018-05-12T02:52:32.247Z,83.37
2018-05-12T02:55:01.182Z,83.08
2018-05-12T02:57:29.780Z,82.96
2018-05-12T02:59:58.421Z,82.91
2018-05-12T03:02:27.048Z,83.66
2018-05-12T03:04:55.667Z,84.07
2018-05-12T03:07:24.263Z,84.37
2018-05-12T03:09:52.896Z,84.53
2018-05-12T03:12:21.509Z,84.64
2018-05-12T03:14:50.144Z,84.38
2018-05-12T03:17:18.759Z,84.23
2018-05-12T03:19:47.389Z,84.12
2018-05-12T03:22:15.991Z,82.47
2018-05-12T03:24:46.364Z,83.20
2018-05-12T03:27:14.958Z,83.72
2018-05-12T03:29:43.588Z,84.04
2018-05-12T03:32:13.998Z,83.96
2018-05-12T03:34:47.915Z,81.97
2018-05-12T03:37:16.804Z,82.69
2018-05-12T03:39:45.404Z,83.35
2018-05-12T03:42:14.049Z,83.80
2018-05-12T03:44:42.660Z,82.08
2018-05-12T03:47:11.347Z,82.91
2018-05-12T03:49:39.956Z,81.35
2018-05-12T03:52:08.635Z,82.61
2018-05-12T03:54:38.530Z,83.25
2018-05-12T03:57:09.103Z,81.71
2018-05-12T03:59:37.695Z,80.66
2018-05-12T04:02:06.351Z,81.79
2018-05-12T04:05:11.785Z,82.46
2018-05-12T04:08:17.270Z,83.33
2018-05-12T04:11:22.961Z,81.40
2018-05-12T04:13:51.577Z,82.76
2018-05-12T04:16:21.646Z,83.41
2018-05-12T04:18:50.320Z,81.75
2018-05-12T04:21:19.844Z,82.85
2018-05-12T04:23:48.389Z,83.41
2018-05-12T04:26:17.029Z,83.98
2018-05-12T04:28:45.633Z,84.36
2018-05-12T04:31:14.271Z,84.07
2018-05-12T04:33:42.874Z,83.78
2018-05-12T04:36:11.472Z,83.66
2018-05-12T04:38:40.106Z,83.42
2018-05-12T04:41:08.704Z,83.13
2018-05-12T04:43:37.448Z,82.92
2018-05-12T04:46:06.071Z,83.08
2018-05-12T04:48:34.704Z,80.59
2018-05-12T04:51:06.049Z,80.98
2018-05-12T04:53:35.248Z,81.39
2018-05-12T04:56:07.465Z,81.31
2018-05-12T04:58:55.009Z,81.53
2018-05-12T05:01:26.380Z,81.73
2018-05-12T05:03:57.453Z,81.92
2018-05-12T05:06:32.063Z,82.26
2018-05-12T05:11:58.794Z,83.06
2018-05-12T05:14:30.868Z,83.19
2018-05-12T05:17:02.721Z,83.35
2018-05-12T05:19:40.027Z,83.34
2018-05-12T05:22:14.692Z,83.21
2018-05-12T05:24:45.714Z,83.03
2018-05-12T05:27:14.355Z,83.25
2018-05-12T05:29:42.957Z,80.65
2018-05-12T05:32:11.555Z,81.54
2018-05-12T05:34:40.187Z,81.88
2018-05-12T05:37:08.791Z,82.42
2018-05-12T05:39:37.423Z,82.88
2018-05-12T05:42:06.132Z,83.21
2018-05-12T05:44:34.859Z,80.47
2018-05-12T05:47:03.469Z,81.56
2018-05-12T05:49:32.099Z,82.52
2018-05-12T05:52:00.705Z,82.71
2018-05-12T05:54:42.625Z,83.08
2018-05-12T05:57:14.110Z,83.19
2018-05-12T05:59:42.741Z,83.45
2018-05-12T06:02:11.340Z,82.98
2018-05-12T06:04:39.969Z,83.15
2018-05-12T06:07:08.607Z,83.00
2018-05-12T06:09:37.230Z,82.57
2018-05-12T06:12:05.832Z,82.39
2018-05-12T06:14:34.531Z,82.26
2018-05-12T06:17:03.143Z,82.35
2018-05-12T06:19:32.510Z,81.98
2018-05-12T06:22:03.260Z,81.77
2018-05-12T06:24:31.903Z,81.66
2018-05-12T06:27:01.943Z,81.46
2018-05-12T06:29:31.023Z,81.73
2018-05-12T06:32:05.395Z,81.33
2018-05-12T06:34:36.573Z,77.62
2018-05-12T06:37:05.236Z,78.61
2018-05-12T06:39:34.482Z,78.83
2018-05-12T06:42:04.780Z,79.07
2018-05-12T06:44:33.412Z,75.14
2018-05-12T06:47:02.305Z,76.36
2018-05-12T06:49:30.938Z,76.58
2018-05-12T06:51:59.540Z,76.85
2018-05-12T06:54:28.205Z,76.93
2018-05-12T06:56:56.811Z,72.80
2018-05-12T06:59:25.477Z,74.58
2018-05-12T07:01:55.075Z,70.54
2018-05-12T07:04:24.950Z,73.23
2018-05-12T07:06:54.006Z,74.22
2018-05-12T07:09:22.655Z,74.37
2018-05-12T07:11:51.263Z,69.25
2018-05-12T07:14:19.867Z,72.00
2018-05-12T07:16:48.500Z,72.67
2018-05-12T07:19:17.115Z,68.21
2018-05-12T07:21:45.904Z,71.10
2018-05-12T07:24:14.513Z,72.06
2018-05-12T07:26:43.149Z,72.13
2018-05-12T07:29:12.097Z,67.19
2018-05-12T07:31:42.083Z,69.84
2018-05-12T07:34:10.700Z,70.79
2018-05-12T07:36:39.395Z,71.49
2018-05-12T07:39:08.156Z,71.85
2018-05-12T07:41:36.891Z,71.05
2018-05-12T07:44:08.071Z,70.54
2018-05-12T07:49:24.334Z,68.87
2018-05-12T07:51:53.405Z,68.79
2018-05-12T07:54:22.259Z,68.42
2018-05-12T07:56:51.066Z,68.15
2018-05-12T07:59:20.008Z,68.12
2018-05-12T08:01:49.481Z,62.03
2018-05-12T08:04:18.219Z,65.80
2018-05-12T08:06:48.721Z,61.26
2018-05-12T08:09:17.452Z,64.06
2018-05-12T08:11:46.410Z,64.30
2018-05-12T08:14:15.502Z,64.85
2018-05-12T08:16:44.195Z,58.59
2018-05-12T08:19:13.003Z,62.28
2018-05-12T08:21:41.754Z,57.27
2018-05-12T08:24:10.380Z,61.37
2018-05-12T08:26:39.162Z,62.53
2018-05-12T08:29:07.748Z,63.90
2018-05-12T08:31:36.409Z,63.13
2018-05-12T08:34:04.992Z,63.03
2018-05-12T08:36:34.936Z,62.63
2018-05-12T08:39:03.539Z,62.81
2018-05-12T08:41:32.172Z,62.24
2018-05-12T08:44:00.795Z,61.29
2018-05-12T08:46:29.425Z,60.79
2018-05-12T08:48:58.036Z,61.37
2018-05-12T08:51:26.671Z,60.29
2018-05-12T08:53:55.734Z,60.23
2018-05-12T08:56:24.380Z,53.60
2018-05-12T08:58:52.994Z,57.17
2018-05-12T09:01:21.683Z,56.79
2018-05-12T09:03:50.553Z,58.49
2018-05-12T09:06:19.187Z,57.37
2018-05-12T09:08:47.792Z,57.94
2018-05-12T09:11:16.423Z,58.54
2018-05-12T09:13:45.244Z,57.39
2018-05-12T09:16:13.881Z,56.29
2018-05-12T09:18:45.984Z,55.03
2018-05-12T09:21:14.584Z,55.76
2018-05-12T09:23:44.827Z,53.83
2018-05-12T09:26:13.417Z,46.89
2018-05-12T09:28:42.081Z,51.02
2018-05-12T09:31:10.751Z,52.75
2018-05-12T09:33:40.222Z,48.37
2018-05-12T09:36:09.159Z,51.25
2018-05-12T09:38:37.833Z,52.90
2018-05-12T09:41:11.427Z,53.94
2018-05-12T09:43:40.136Z,52.99
2018-05-12T09:46:08.768Z,53.20
2018-05-12T09:48:37.429Z,47.90
2018-05-12T09:51:06.065Z,52.11
2018-05-12T09:53:35.917Z,52.77
2018-05-12T09:56:04.734Z,53.48
2018-05-12T09:58:33.404Z,48.17
2018-05-12T10:01:02.041Z,51.00
2018-05-12T10:03:30.849Z,52.18
2018-05-12T10:05:59.412Z,52.47
2018-05-12T10:08:31.308Z,52.49
2018-05-12T10:11:00.218Z,52.62
2018-05-12T10:13:29.341Z,52.36
2018-05-12T10:15:57.889Z,52.00
2018-05-12T10:18:26.647Z,52.34
2018-05-12T10:21:00.688Z,51.14
2018-05-12T10:23:29.324Z,50.90
2018-05-12T10:25:58.172Z,51.72
2018-05-12T10:28:26.811Z,51.80
2018-05-12T10:30:55.407Z,51.38
2018-05-12T10:33:24.625Z,51.37
2018-05-12T10:35:53.247Z,50.60
2018-05-12T10:38:21.892Z,44.60
2018-05-12T10:40:50.492Z,47.78
2018-05-12T10:43:19.121Z,41.83
2018-05-12T10:45:49.727Z,46.59
2018-05-12T10:48:18.392Z,47.11
2018-05-12T10:50:47.136Z,47.45
2018-05-12T10:53:15.772Z,47.26
2018-05-12T10:55:44.379Z,47.23
2018-05-12T10:58:13.024Z,46.43
2018-05-12T11:00:41.620Z,46.23
2018-05-12T11:03:10.292Z,45.34
2018-05-12T11:05:38.896Z,46.34
2018-05-12T11:08:07.507Z,40.36
2018-05-12T11:10:36.145Z,43.96
2018-05-12T11:13:04.748Z,44.36
2018-05-12T11:15:33.388Z,41.10
2018-05-12T11:18:02.000Z,43.80
2018-05-12T11:20:30.645Z,43.76
2018-05-12T11:23:00.179Z,44.29
2018-05-12T11:25:28.816Z,45.47
2018-05-12T11:27:57.420Z,45.77
2018-05-12T11:30:26.054Z,45.72
2018-05-12T11:32:54.655Z,45.27
2018-05-12T11:35:24.639Z,45.53
2018-05-12T11:37:53.242Z,45.50
2018-05-12T11:40:21.874Z,46.30
2018-05-12T11:42:50.474Z,45.21
2018-05-12T11:45:19.113Z,45.11
2018-05-12T11:47:50.507Z,45.53
2018-05-12T11:50:19.763Z,44.96
2018-05-12T11:52:48.364Z,46.18
2018-05-12T11:55:17.013Z,46.25
2018-05-12T11:57:45.616Z,45.22
2018-05-12T12:00:14.253Z,45.47
2018-05-12T12:02:42.853Z,45.43
2018-05-12T12:05:11.499Z,45.18
2018-05-12T12:07:40.091Z,41.67
2018-05-12T12:10:10.859Z,44.69
2018-05-12T12:12:39.470Z,44.16
2018-05-12T12:15:08.102Z,39.85
2018-05-12T12:17:36.716Z,43.02
2018-05-12T12:20:05.408Z,42.42
2018-05-12T12:22:34.032Z,43.42
2018-05-12T12:25:02.672Z,42.97
2018-05-12T12:27:31.325Z,44.18
2018-05-12T12:29:59.967Z,44.12
2018-05-12T12:32:28.582Z,43.75
2018-05-12T12:34:57.211Z,43.77
2018-05-12T12:37:25.813Z,44.18
2018-05-12T12:39:54.443Z,44.73
2018-05-12T12:42:23.056Z,44.44
2018-05-12T12:44:51.697Z,44.38
2018-05-12T12:47:20.332Z,44.28
2018-05-12T12:49:49.231Z,43.91
2018-05-12T12:52:18.074Z,39.11
2018-05-12T12:54:46.952Z,41.76
2018-05-12T12:57:16.181Z,43.40
2018-05-12T12:59:47.891Z,42.65
2018-05-12T13:02:16.686Z,42.49
2018-05-12T13:04:45.748Z,41.92
2018-05-12T13:07:14.904Z,37.50
2018-05-12T13:09:43.957Z,40.69
2018-05-12T13:12:13.106Z,41.26
2018-05-12T13:14:42.128Z,41.35
2018-05-12T13:17:11.169Z,41.21
2018-05-12T13:19:40.370Z,38.07
2018-05-12T13:22:09.033Z,39.45
2018-05-12T13:24:37.837Z,40.96
2018-05-12T13:27:13.659Z,41.74
2018-05-12T13:29:48.713Z,41.78
2018-05-12T13:32:17.266Z,41.97
2018-05-12T13:34:45.847Z,41.65
2018-05-12T13:37:14.484Z,41.70
2018-05-12T13:39:43.083Z,38.21
2018-05-12T13:42:11.715Z,39.86
2018-05-12T13:44:41.308Z,40.77
2018-05-12T13:47:09.939Z,40.51
2018-05-12T13:49:38.536Z,40.12
2018-05-12T13:52:07.167Z,40.43
2018-05-12T13:54:35.767Z,40.29
2018-05-12T13:57:04.404Z,40.04
2018-05-12T13:59:33.916Z,39.91
2018-05-12T14:02:02.549Z,39.93
2018-05-12T14:04:31.512Z,39.41
2018-05-12T14:07:00.144Z,39.20
2018-05-12T14:09:28.748Z,38.82
2018-05-12T14:11:58.157Z,39.36
2018-05-12T14:14:26.993Z,39.14
2018-05-12T14:16:56.319Z,34.78
2018-05-12T14:19:26.879Z,37.08
2018-05-12T14:21:55.515Z,38.56
2018-05-12T14:24:24.116Z,38.56
2018-05-12T14:26:52.865Z,37.64
2018-05-12T14:29:21.467Z,37.91
2018-05-12T14:31:50.069Z,37.61
2018-05-12T14:34:20.764Z,38.41
2018-05-12T14:36:49.365Z,38.27
2018-05-12T14:39:18.023Z,38.25
2018-05-12T14:41:46.629Z,38.39
2018-05-12T14:44:15.547Z,34.89
2018-05-12T14:46:44.500Z,36.99
2018-05-12T14:49:13.398Z,36.78
2018-05-12T14:51:52.115Z,36.99
2018-05-12T14:54:21.845Z,37.21
2018-05-12T14:56:50.617Z,32.47
2018-05-12T14:59:19.330Z,31.59
2018-05-12T15:01:48.068Z,33.02
2018-05-12T15:04:16.927Z,33.68
2018-05-12T15:06:45.805Z,32.91
2018-05-12T15:09:14.417Z,32.60
2018-05-12T15:11:45.337Z,32.25
2018-05-12T15:14:14.357Z,31.96
2018-05-12T15:16:42.974Z,33.21
2018-05-12T15:19:11.671Z,31.85
2018-05-12T15:21:40.275Z,31.22
2018-05-12T15:24:09.200Z,30.44
2018-05-12T15:26:47.288Z,30.86
2018-05-12T15:29:16.233Z,30.98
2018-05-12T15:31:45.298Z,31.74
2018-05-12T15:34:15.185Z,27.30
2018-05-12T15:36:44.851Z,29.16
2018-05-12T15:39:15.477Z,26.38
2018-05-12T15:41:44.960Z,28.44
2018-05-12T15:44:13.997Z,28.97
2018-05-12T15:46:42.592Z,29.07
2018-05-12T15:49:11.755Z,29.57
2018-05-12T15:51:40.700Z,29.28
2018-05-12T15:54:09.729Z,26.04
2018-05-12T15:56:42.914Z,28.17
2018-05-12T15:59:20.941Z,28.69
2018-05-12T16:01:49.560Z,28.87
2018-05-12T16:04:18.190Z,28.68
2018-05-12T16:06:47.819Z,29.02
2018-05-12T16:09:20.444Z,29.07
2018-05-12T16:11:51.517Z,29.76
2018-05-12T16:14:20.153Z,29.89
2018-05-12T16:16:49.696Z,29.72
2018-05-12T16:19:18.340Z,29.59
2018-05-12T16:21:46.946Z,26.04
2018-05-12T16:24:16.214Z,29.15
2018-05-12T16:26:44.821Z,29.09
2018-05-12T16:29:13.955Z,29.66
2018-05-12T16:31:42.573Z,29.53
2018-05-12T16:34:11.201Z,29.68
2018-05-12T16:36:39.804Z,29.62
2018-05-12T16:39:15.733Z,29.26
2018-05-12T16:41:48.139Z,29.53
2018-05-12T16:44:16.776Z,29.70
2018-05-12T16:46:48.173Z,29.69
2018-05-12T16:49:16.774Z,29.95
2018-05-12T16:51:45.398Z,30.25
2018-05-12T16:54:15.060Z,26.35
2018-05-12T16:56:43.692Z,29.07
2018-05-12T16:59:12.332Z,29.48
2018-05-12T17:01:40.924Z,29.29
2018-05-12T17:04:09.897Z,29.58
2018-05-12T17:06:41.655Z,29.84
2018-05-12T17:09:19.048Z,29.95
2018-05-12T17:11:47.683Z,29.92
2018-05-12T17:14:16.284Z,29.55
2018-05-12T17:16:44.920Z,29.56
2018-05-12T17:19:15.573Z,29.81
2018-05-12T17:21:44.197Z,29.98
2018-05-12T17:24:12.796Z,30.36
2018-05-12T17:26:41.511Z,30.46
2018-05-12T17:29:11.614Z,30.35
2018-05-12T17:31:44.993Z,30.44
2018-05-12T17:34:15.932Z,30.68
2018-05-12T17:36:46.574Z,30.90
2018-05-12T17:39:15.197Z,31.01
2018-05-12T17:41:43.832Z,31.08
2018-05-12T17:44:12.520Z,31.29
2018-05-12T17:46:41.071Z,31.74
2018-05-12T17:49:09.676Z,32.98
2018-05-12T17:51:38.313Z,34.04
2018-05-12T17:54:06.915Z,35.64
2018-05-12T17:56:37.704Z,36.79
2018-05-12T17:59:06.308Z,37.91
2018-05-12T18:01:36.108Z,38.88
2018-05-12T18:04:04.759Z,40.23
2018-05-12T18:06:35.524Z,38.62
2018-05-12T18:09:08.031Z,42.28
2018-05-12T18:11:37.832Z,43.77
2018-05-12T18:14:06.332Z,45.24
2018-05-12T18:16:34.971Z,46.43
2018-05-12T18:19:03.932Z,48.13
2018-05-12T18:21:32.520Z,49.92
2018-05-12T18:24:03.207Z,47.79
2018-05-12T18:26:31.838Z,51.30
2018-05-12T18:29:00.440Z,52.61
2018-05-12T18:31:29.987Z,53.77
2018-05-12T18:33:58.584Z,54.46
2018-05-12T18:36:27.268Z,51.23
2018-05-12T18:38:55.887Z,54.38
2018-05-12T18:41:26.016Z,55.43
2018-05-12T18:43:56.769Z,55.85
2018-05-12T18:46:25.369Z,55.85
2018-05-12T18:48:57.108Z,56.92
2018-05-12T18:51:29.625Z,54.64
2018-05-12T18:53:58.264Z,57.21
2018-05-12T18:56:26.870Z,57.99
2018-05-12T18:58:55.495Z,58.60
2018-05-12T19:01:24.154Z,58.99
2018-05-12T19:03:52.790Z,59.66
2018-05-12T19:06:21.398Z,59.41
2018-05-12T19:08:51.117Z,60.43
2018-05-12T19:11:20.057Z,60.58
2018-05-12T19:13:48.700Z,57.94
2018-05-12T19:16:17.880Z,60.07
2018-05-12T19:18:49.849Z,58.16
2018-05-12T19:21:21.713Z,57.93
2018-05-12T19:23:54.415Z,60.89
2018-05-12T19:26:25.044Z,58.93
2018-05-12T19:28:54.519Z,59.38
2018-05-12T19:31:24.944Z,62.32
2018-05-12T19:34:03.442Z,60.39
2018-05-12T19:36:34.635Z,59.90
2018-05-12T19:39:04.683Z,60.27
2018-05-12T19:41:33.421Z,63.04
2018-05-12T19:44:02.095Z,64.23
2018-05-12T19:46:31.043Z,61.70
2018-05-12T19:49:00.697Z,63.99
2018-05-12T19:51:37.175Z,65.23
2018-05-12T19:54:08.176Z,65.57
2018-05-12T19:56:46.031Z,65.51
2018-05-12T19:59:15.412Z,65.92
2018-05-12T20:01:44.017Z,66.03
2018-05-12T20:04:12.651Z,66.71
2018-05-12T20:06:44.253Z,64.01
2018-05-12T20:09:13.050Z,66.12
2018-05-12T20:11:43.248Z,66.54
2018-05-12T20:14:14.121Z,66.86
2018-05-12T20:16:45.035Z,67.17
2018-05-12T20:19:20.709Z,67.01
2018-05-12T20:21:52.333Z,67.64
2018-05-12T20:24:22.681Z,68.09
2018-05-12T20:26:51.327Z,66.96
2018-05-12T20:29:23.051Z,67.18
2018-05-12T20:31:52.523Z,66.61
2018-05-12T20:34:21.918Z,66.87
2018-05-12T20:36:50.965Z,66.48
2018-05-12T20:39:20.539Z,67.04
2018-05-12T20:41:49.943Z,66.89
2018-05-12T20:44:19.009Z,64.39
2018-05-12T20:46:48.223Z,65.70
2018-05-12T20:49:17.256Z,64.69
2018-05-12T20:51:46.621Z,66.80
2018-05-12T20:54:16.068Z,67.41
2018-05-12T20:56:45.770Z,65.42
2018-05-12T20:59:15.341Z,67.72
2018-05-12T21:01:44.588Z,68.80
2018-05-12T21:04:13.142Z,69.70
2018-05-12T21:06:42.065Z,70.09
2018-05-12T21:09:12.135Z,70.49
2018-05-12T21:11:41.030Z,71.21
2018-05-12T21:14:09.867Z,71.50
2018-05-12T21:16:40.672Z,71.89
2018-05-12T21:19:12.006Z,71.80
2018-05-12T21:21:42.542Z,72.10
2018-05-12T21:24:13.597Z,72.55
2018-05-12T21:26:43.057Z,73.08
2018-05-12T21:29:12.041Z,73.50
2018-05-12T21:31:41.343Z,74.23
2018-05-12T21:34:10.009Z,74.56
2018-05-12T21:36:39.326Z,74.36
2018-05-12T21:39:08.157Z,74.59
2018-05-12T21:41:36.790Z,74.96
2018-05-12T21:44:05.719Z,75.42
2018-05-12T21:46:34.352Z,75.55
2018-05-12T21:49:02.957Z,73.09
2018-05-12T21:51:34.578Z,74.63
2018-05-12T21:54:03.182Z,75.05
2018-05-12T21:56:31.812Z,75.28
2018-05-12T21:59:01.362Z,75.41
2018-05-12T22:01:30.203Z,72.72
2018-05-12T22:03:59.270Z,74.33
2018-05-12T22:06:29.526Z,74.78
2018-05-12T22:08:58.653Z,72.41
2018-05-12T22:11:27.433Z,74.06
2018-05-12T22:13:56.679Z,74.83
2018-05-12T22:16:25.592Z,74.96
2018-05-12T22:18:54.594Z,75.63
2018-05-12T22:21:23.644Z,75.72
2018-05-12T22:23:52.307Z,75.66
2018-05-12T22:26:21.534Z,75.55
2018-05-12T22:28:50.901Z,72.68
2018-05-12T22:31:20.183Z,73.57
2018-05-12T22:33:49.685Z,73.38
2018-05-12T22:36:18.574Z,70.91
2018-05-12T22:38:48.688Z,72.40
2018-05-12T22:41:17.314Z,72.60
2018-05-12T22:43:46.169Z,73.50
2018-05-12T22:46:14.800Z,73.64
2018-05-12T22:48:43.402Z,70.99
2018-05-12T22:51:12.033Z,72.04
2018-05-12T22:53:40.635Z,72.28
2018-05-12T22:56:09.642Z,72.47
2018-05-12T22:58:38.592Z,72.63
2018-05-12T23:01:07.189Z,72.48
2018-05-12T23:03:35.851Z,72.45
2018-05-12T23:06:04.452Z,72.74
2018-05-12T23:08:33.343Z,72.66
2018-05-12T23:11:02.506Z,71.02
2018-05-12T23:13:31.499Z,72.52
2018-05-12T23:16:00.499Z,72.88
2018-05-12T23:18:29.208Z,72.88
2018-05-12T23:20:57.727Z,73.22
2018-05-12T23:23:26.350Z,73.26
2018-05-12T23:25:54.962Z,73.07
2018-05-12T23:28:23.767Z,73.54
2018-05-12T23:31:10.501Z,71.48
2018-05-12T23:33:39.130Z,73.04
2018-05-12T23:36:07.783Z,73.04
2018-05-12T23:38:36.355Z,73.62
2018-05-12T23:41:07.043Z,72.12
2018-05-12T23:43:38.261Z,73.87
2018-05-12T23:46:06.860Z,74.22
2018-05-12T23:48:35.497Z,75.07
2018-05-12T23:51:04.094Z,75.76
2018-05-12T23:53:32.726Z,76.23
2018-05-12T23:56:01.896Z,76.00
2018-05-12T23:58:30.540Z,73.53
